sensor_id;sensor_type;location;lat;lon;timestamp;noise_LAeq;noise_LA_min;noise_LA_max;noise_LA01;noise_LA95
67398;Laerm;57728;50.448;18.824;2023-01-31T00:00:49;38.69;34.15;63.49;;
67398;Laerm;57728;50.448;18.824;2023-01-31T00:02:52;37.44;34.36;52.56;;
67398;Laerm;57728;50.448;18.824;2023-01-31T00:04:53;39.71;34.17;69.22;;
67398;Laerm;57728;50.448;18.824;2023-01-31T00:06:55;38.22;33.85;66.86;;
67398;Laerm;57728;50.448;18.824;2023-01-31T00:09:00;38.52;33.98;66.87;;
67398;Laerm;57728;50.448;18.824;2023-01-31T00:11:02;37.86;34.33;53.13;;
67398;Laerm;57728;50.448;18.824;2023-01-31T00:13:04;37.26;34.27;52.05;;
67398;Laerm;57728;50.448;18.824;2023-01-31T00:15:06;37.47;34.06;52.32;;
67398;Laerm;57728;50.448;18.824;2023-01-31T00:17:08;36.45;34.08;55.91;;
67398;Laerm;57728;50.448;18.824;2023-01-31T00:19:11;38.39;34.31;57.03;;
67398;Laerm;57728;50.448;18.824;2023-01-31T00:21:16;37.38;34.25;54.14;;
67398;Laerm;57728;50.448;18.824;2023-01-31T00:23:18;37.41;33.99;52.05;;
67398;Laerm;57728;50.448;18.824;2023-01-31T00:25:20;37.80;34.23;52.66;;
67398;Laerm;57728;50.448;18.824;2023-01-31T00:27:21;37.16;34.33;52.31;;
67398;Laerm;57728;50.448;18.824;2023-01-31T00:29:23;37.10;34.34;58.69;;
67398;Laerm;57728;50.448;18.824;2023-01-31T00:31:28;36.82;34.11;50.09;;
67398;Laerm;57728;50.448;18.824;2023-01-31T00:33:30;36.34;34.14;49.87;;
67398;Laerm;57728;50.448;18.824;2023-01-31T00:35:32;37.21;34.15;51.69;;
67398;Laerm;57728;50.448;18.824;2023-01-31T00:37:35;36.77;34.39;52.91;;
67398;Laerm;57728;50.448;18.824;2023-01-31T00:39:36;36.83;34.22;51.08;;
67398;Laerm;57728;50.448;18.824;2023-01-31T00:41:38;39.26;34.38;57.43;;
67398;Laerm;57728;50.448;18.824;2023-01-31T00:43:40;38.58;34.28;67.63;;
67398;Laerm;57728;50.448;18.824;2023-01-31T00:45:43;37.71;34.31;54.90;;
67398;Laerm;57728;50.448;18.824;2023-01-31T00:47:45;36.88;34.09;53.32;;
67398;Laerm;57728;50.448;18.824;2023-01-31T00:49:47;37.82;34.40;54.02;;
67398;Laerm;57728;50.448;18.824;2023-01-31T00:51:49;36.85;34.18;52.94;;
67398;Laerm;57728;50.448;18.824;2023-01-31T00:53:51;40.39;34.28;64.09;;
67398;Laerm;57728;50.448;18.824;2023-01-31T00:56:07;39.70;34.20;61.71;;
67398;Laerm;57728;50.448;18.824;2023-01-31T00:58:10;38.77;34.35;62.28;;
67398;Laerm;57728;50.448;18.824;2023-01-31T01:00:12;37.86;34.19;66.82;;
67398;Laerm;57728;50.448;18.824;2023-01-31T01:02:15;40.71;34.16;62.95;;
67398;Laerm;57728;50.448;18.824;2023-01-31T01:04:17;40.54;34.37;61.14;;
67398;Laerm;57728;50.448;18.824;2023-01-31T01:06:22;36.97;34.33;53.39;;
67398;Laerm;57728;50.448;18.824;2023-01-31T01:08:28;37.64;34.25;57.86;;
67398;Laerm;57728;50.448;18.824;2023-01-31T01:10:30;39.20;34.21;59.98;;
67398;Laerm;57728;50.448;18.824;2023-01-31T01:12:32;42.85;34.32;63.82;;
67398;Laerm;57728;50.448;18.824;2023-01-31T01:14:34;38.66;34.46;58.95;;
67398;Laerm;57728;50.448;18.824;2023-01-31T01:16:38;40.95;34.36;60.89;;
67398;Laerm;57728;50.448;18.824;2023-01-31T01:18:41;38.92;34.22;64.80;;
67398;Laerm;57728;50.448;18.824;2023-01-31T01:20:45;36.95;34.07;54.98;;
67398;Laerm;57728;50.448;18.824;2023-01-31T01:22:47;40.12;34.24;63.96;;
67398;Laerm;57728;50.448;18.824;2023-01-31T01:24:48;37.37;34.36;54.86;;
67398;Laerm;57728;50.448;18.824;2023-01-31T01:26:50;40.38;34.30;65.05;;
67398;Laerm;57728;50.448;18.824;2023-01-31T01:28:54;39.25;34.14;63.39;;
67398;Laerm;57728;50.448;18.824;2023-01-31T01:30:56;37.90;34.17;55.96;;
67398;Laerm;57728;50.448;18.824;2023-01-31T01:32:58;37.03;34.15;56.90;;
67398;Laerm;57728;50.448;18.824;2023-01-31T01:35:00;39.80;34.18;62.86;;
67398;Laerm;57728;50.448;18.824;2023-01-31T01:37:02;37.08;34.27;55.71;;
67398;Laerm;57728;50.448;18.824;2023-01-31T01:39:11;37.58;34.25;57.82;;
67398;Laerm;57728;50.448;18.824;2023-01-31T01:41:14;42.44;34.29;62.72;;
67398;Laerm;57728;50.448;18.824;2023-01-31T01:43:15;43.42;34.00;66.94;;
67398;Laerm;57728;50.448;18.824;2023-01-31T01:45:18;39.52;33.88;61.23;;
67398;Laerm;57728;50.448;18.824;2023-01-31T01:47:48;36.32;33.78;50.48;;
67398;Laerm;57728;50.448;18.824;2023-01-31T01:50:13;38.51;33.88;59.96;;
67398;Laerm;57728;50.448;18.824;2023-01-31T01:52:18;39.13;33.81;66.50;;
67398;Laerm;57728;50.448;18.824;2023-01-31T01:54:33;37.26;33.82;55.44;;
67398;Laerm;57728;50.448;18.824;2023-01-31T01:56:44;36.26;33.78;49.90;;
67398;Laerm;57728;50.448;18.824;2023-01-31T01:59:02;35.85;33.73;53.32;;
67398;Laerm;57728;50.448;18.824;2023-01-31T02:01:07;37.83;33.74;57.87;;
67398;Laerm;57728;50.448;18.824;2023-01-31T02:03:09;36.44;33.68;54.76;;
67398;Laerm;57728;50.448;18.824;2023-01-31T02:05:20;36.78;33.75;50.99;;
67398;Laerm;57728;50.448;18.824;2023-01-31T02:07:23;36.39;33.73;51.25;;
67398;Laerm;57728;50.448;18.824;2023-01-31T02:09:41;36.05;33.68;51.96;;
67398;Laerm;57728;50.448;18.824;2023-01-31T02:11:47;37.09;33.96;54.33;;
67398;Laerm;57728;50.448;18.824;2023-01-31T02:13:57;35.94;33.78;49.15;;
67398;Laerm;57728;50.448;18.824;2023-01-31T02:16:01;35.39;33.54;45.85;;
67398;Laerm;57728;50.448;18.824;2023-01-31T02:18:05;35.80;33.85;49.38;;
67398;Laerm;57728;50.448;18.824;2023-01-31T02:20:24;35.64;33.68;45.18;;
67398;Laerm;57728;50.448;18.824;2023-01-31T02:22:39;37.62;33.91;54.98;;
67398;Laerm;57728;50.448;18.824;2023-01-31T02:31:17;44.75;34.12;68.63;;
67398;Laerm;57728;50.448;18.824;2023-01-31T02:33:51;40.72;33.91;60.67;;
67398;Laerm;57728;50.448;18.824;2023-01-31T02:41:22;37.95;33.89;56.38;;
67398;Laerm;57728;50.448;18.824;2023-01-31T02:46:17;36.87;33.78;52.39;;
67398;Laerm;57728;50.448;18.824;2023-01-31T02:51:18;37.54;33.91;56.29;;
67398;Laerm;57728;50.448;18.824;2023-01-31T02:53:41;36.26;33.77;55.64;;
67398;Laerm;57728;50.448;18.824;2023-01-31T02:56:12;35.64;33.97;48.30;;
67398;Laerm;57728;50.448;18.824;2023-01-31T02:58:36;40.62;34.17;63.51;;
67398;Laerm;57728;50.448;18.824;2023-01-31T03:00:47;39.33;34.00;58.30;;
67398;Laerm;57728;50.448;18.824;2023-01-31T03:02:49;38.61;33.77;59.20;;
67398;Laerm;57728;50.448;18.824;2023-01-31T03:04:52;38.38;33.90;64.66;;
67398;Laerm;57728;50.448;18.824;2023-01-31T03:06:59;39.87;34.15;64.16;;
67398;Laerm;57728;50.448;18.824;2023-01-31T03:09:27;37.69;33.95;56.18;;
67398;Laerm;57728;50.448;18.824;2023-01-31T03:16:39;44.37;34.09;68.85;;
67398;Laerm;57728;50.448;18.824;2023-01-31T03:19:18;37.98;34.04;59.24;;
67398;Laerm;57728;50.448;18.824;2023-01-31T03:21:43;43.88;34.11;68.68;;
67398;Laerm;57728;50.448;18.824;2023-01-31T03:23:58;36.75;34.20;53.55;;
67398;Laerm;57728;50.448;18.824;2023-01-31T03:26:05;40.01;34.27;60.58;;
67398;Laerm;57728;50.448;18.824;2023-01-31T03:28:27;36.40;34.13;53.85;;
67398;Laerm;57728;50.448;18.824;2023-01-31T03:30:42;37.63;33.86;58.16;;
67398;Laerm;57728;50.448;18.824;2023-01-31T03:32:58;36.65;34.13;53.12;;
67398;Laerm;57728;50.448;18.824;2023-01-31T03:35:03;38.14;34.10;55.98;;
67398;Laerm;57728;50.448;18.824;2023-01-31T03:39:36;38.28;34.17;61.89;;
67398;Laerm;57728;50.448;18.824;2023-01-31T03:42:21;37.11;34.20;53.67;;
67398;Laerm;57728;50.448;18.824;2023-01-31T03:47:30;40.83;33.87;64.29;;
67398;Laerm;57728;50.448;18.824;2023-01-31T03:49:39;40.80;34.18;62.86;;
67398;Laerm;57728;50.448;18.824;2023-01-31T03:51:50;37.36;34.01;55.75;;
67398;Laerm;57728;50.448;18.824;2023-01-31T03:54:06;38.86;34.02;57.57;;
67398;Laerm;57728;50.448;18.824;2023-01-31T03:56:21;37.24;34.13;52.99;;
67398;Laerm;57728;50.448;18.824;2023-01-31T03:58:35;38.68;34.07;64.67;;
67398;Laerm;57728;50.448;18.824;2023-01-31T04:00:43;36.02;34.20;48.05;;
67398;Laerm;57728;50.448;18.824;2023-01-31T04:02:57;36.18;34.04;46.06;;
67398;Laerm;57728;50.448;18.824;2023-01-31T04:05:18;35.99;34.17;48.43;;
67398;Laerm;57728;50.448;18.824;2023-01-31T04:07:25;35.73;33.92;46.01;;
67398;Laerm;57728;50.448;18.824;2023-01-31T04:09:27;35.62;33.93;43.80;;
67398;Laerm;57728;50.448;18.824;2023-01-31T04:11:37;35.68;33.85;41.42;;
67398;Laerm;57728;50.448;18.824;2023-01-31T04:13:41;35.50;33.92;41.45;;
67398;Laerm;57728;50.448;18.824;2023-01-31T04:15:43;35.68;33.86;47.54;;
67398;Laerm;57728;50.448;18.824;2023-01-31T04:17:44;35.74;34.12;44.20;;
67398;Laerm;57728;50.448;18.824;2023-01-31T04:19:46;35.69;33.93;47.69;;
67398;Laerm;57728;50.448;18.824;2023-01-31T04:21:48;36.04;33.95;53.63;;
67398;Laerm;57728;50.448;18.824;2023-01-31T04:23:49;35.80;33.94;50.27;;
67398;Laerm;57728;50.448;18.824;2023-01-31T04:25:53;35.57;33.77;44.43;;
67398;Laerm;57728;50.448;18.824;2023-01-31T04:27:57;35.67;33.83;44.47;;
67398;Laerm;57728;50.448;18.824;2023-01-31T04:29:58;38.97;34.04;62.07;;
67398;Laerm;57728;50.448;18.824;2023-01-31T04:32:01;35.69;33.89;43.04;;
67398;Laerm;57728;50.448;18.824;2023-01-31T04:34:02;35.84;34.16;46.68;;
67398;Laerm;57728;50.448;18.824;2023-01-31T04:36:04;35.99;34.04;51.25;;
67398;Laerm;57728;50.448;18.824;2023-01-31T04:38:08;36.54;34.08;55.54;;
67398;Laerm;57728;50.448;18.824;2023-01-31T04:40:10;39.50;33.99;60.48;;
67398;Laerm;57728;50.448;18.824;2023-01-31T04:42:14;36.33;34.04;51.79;;
67398;Laerm;57728;50.448;18.824;2023-01-31T04:44:17;36.27;34.29;46.57;;
67398;Laerm;57728;50.448;18.824;2023-01-31T04:46:18;35.75;34.05;40.42;;
67398;Laerm;57728;50.448;18.824;2023-01-31T04:48:21;35.84;34.23;43.08;;
67398;Laerm;57728;50.448;18.824;2023-01-31T04:50:24;36.60;34.65;44.53;;
67398;Laerm;57728;50.448;18.824;2023-01-31T04:52:25;37.26;34.48;52.17;;
67398;Laerm;57728;50.448;18.824;2023-01-31T04:54:28;35.92;34.19;43.82;;
67398;Laerm;57728;50.448;18.824;2023-01-31T04:56:44;35.94;34.33;45.36;;
67398;Laerm;57728;50.448;18.824;2023-01-31T04:58:47;35.96;34.05;50.91;;
67398;Laerm;57728;50.448;18.824;2023-01-31T05:00:49;35.98;34.20;41.54;;
67398;Laerm;57728;50.448;18.824;2023-01-31T05:02:53;36.01;33.85;38.92;;
67398;Laerm;57728;50.448;18.824;2023-01-31T05:04:56;36.10;34.35;49.76;;
67398;Laerm;57728;50.448;18.824;2023-01-31T05:06:57;36.13;33.91;47.09;;
67398;Laerm;57728;50.448;18.824;2023-01-31T05:08:58;35.93;34.24;41.40;;
67398;Laerm;57728;50.448;18.824;2023-01-31T05:11:04;35.93;34.10;45.95;;
67398;Laerm;57728;50.448;18.824;2023-01-31T05:13:11;36.49;34.37;48.62;;
67398;Laerm;57728;50.448;18.824;2023-01-31T05:15:13;37.38;34.38;49.04;;
67398;Laerm;57728;50.448;18.824;2023-01-31T05:17:15;39.24;34.38;56.75;;
67398;Laerm;57728;50.448;18.824;2023-01-31T05:19:16;36.20;34.23;52.33;;
67398;Laerm;57728;50.448;18.824;2023-01-31T05:21:18;39.62;34.26;50.60;;
67398;Laerm;57728;50.448;18.824;2023-01-31T05:23:20;40.08;34.46;55.20;;
67398;Laerm;57728;50.448;18.824;2023-01-31T05:25:21;37.00;34.10;45.79;;
67398;Laerm;57728;50.448;18.824;2023-01-31T05:27:24;39.19;34.49;58.42;;
67398;Laerm;57728;50.448;18.824;2023-01-31T05:29:30;39.13;34.50;62.71;;
67398;Laerm;57728;50.448;18.824;2023-01-31T05:31:40;40.77;34.31;64.55;;
67398;Laerm;57728;50.448;18.824;2023-01-31T05:33:41;37.41;34.30;47.38;;
67398;Laerm;57728;50.448;18.824;2023-01-31T05:35:44;38.41;34.59;47.96;;
67398;Laerm;57728;50.448;18.824;2023-01-31T05:37:45;37.35;34.50;54.46;;
67398;Laerm;57728;50.448;18.824;2023-01-31T05:39:47;37.91;34.44;55.52;;
67398;Laerm;57728;50.448;18.824;2023-01-31T05:41:49;39.91;34.46;63.27;;
67398;Laerm;57728;50.448;18.824;2023-01-31T05:43:51;40.00;34.35;61.04;;
67398;Laerm;57728;50.448;18.824;2023-01-31T05:45:52;39.99;34.48;53.60;;
67398;Laerm;57728;50.448;18.824;2023-01-31T05:47:56;36.69;34.03;50.45;;
67398;Laerm;57728;50.448;18.824;2023-01-31T05:49:57;43.46;34.30;66.43;;
67398;Laerm;57728;50.448;18.824;2023-01-31T05:51:59;37.22;34.24;55.93;;
67398;Laerm;57728;50.448;18.824;2023-01-31T05:54:02;42.07;34.37;64.53;;
67398;Laerm;57728;50.448;18.824;2023-01-31T05:56:04;42.93;33.98;64.92;;
67398;Laerm;57728;50.448;18.824;2023-01-31T05:58:05;36.17;33.79;49.51;;
67398;Laerm;57728;50.448;18.824;2023-01-31T06:00:09;38.77;34.16;59.46;;
67398;Laerm;57728;50.448;18.824;2023-01-31T06:02:14;39.92;34.11;61.99;;
67398;Laerm;57728;50.448;18.824;2023-01-31T06:04:16;37.03;34.05;52.28;;
67398;Laerm;57728;50.448;18.824;2023-01-31T06:06:19;40.79;34.35;57.89;;
67398;Laerm;57728;50.448;18.824;2023-01-31T06:08:21;38.24;34.04;54.97;;
67398;Laerm;57728;50.448;18.824;2023-01-31T06:10:22;37.14;34.31;60.89;;
67398;Laerm;57728;50.448;18.824;2023-01-31T06:12:25;36.40;34.24;49.84;;
67398;Laerm;57728;50.448;18.824;2023-01-31T06:14:26;43.21;34.19;64.37;;
67398;Laerm;57728;50.448;18.824;2023-01-31T06:16:28;42.86;33.92;64.69;;
67398;Laerm;57728;50.448;18.824;2023-01-31T06:18:30;37.27;34.39;50.19;;
67398;Laerm;57728;50.448;18.824;2023-01-31T06:20:32;39.04;34.01;62.49;;
67398;Laerm;57728;50.448;18.824;2023-01-31T06:22:33;39.17;33.98;61.13;;
67398;Laerm;57728;50.448;18.824;2023-01-31T06:24:35;40.95;34.37;60.79;;
67398;Laerm;57728;50.448;18.824;2023-01-31T06:26:37;38.26;34.22;59.81;;
67398;Laerm;57728;50.448;18.824;2023-01-31T06:28:38;39.45;34.30;61.59;;
67398;Laerm;57728;50.448;18.824;2023-01-31T06:30:41;37.08;34.06;53.53;;
67398;Laerm;57728;50.448;18.824;2023-01-31T06:32:42;37.20;34.20;50.85;;
67398;Laerm;57728;50.448;18.824;2023-01-31T06:34:44;36.87;34.15;56.81;;
67398;Laerm;57728;50.448;18.824;2023-01-31T06:36:46;38.53;34.19;63.79;;
67398;Laerm;57728;50.448;18.824;2023-01-31T06:38:50;45.95;33.99;66.71;;
67398;Laerm;57728;50.448;18.824;2023-01-31T06:40:52;39.70;34.16;60.27;;
67398;Laerm;57728;50.448;18.824;2023-01-31T06:42:54;38.16;34.39;55.84;;
67398;Laerm;57728;50.448;18.824;2023-01-31T06:44:55;38.34;34.55;55.78;;
67398;Laerm;57728;50.448;18.824;2023-01-31T06:46:56;40.14;34.37;67.82;;
67398;Laerm;57728;50.448;18.824;2023-01-31T06:48:59;36.53;34.38;47.51;;
67398;Laerm;57728;50.448;18.824;2023-01-31T06:51:01;36.80;34.36;54.79;;
67398;Laerm;57728;50.448;18.824;2023-01-31T06:53:03;36.76;34.58;47.22;;
67398;Laerm;57728;50.448;18.824;2023-01-31T06:55:06;36.95;34.57;50.75;;
67398;Laerm;57728;50.448;18.824;2023-01-31T06:57:08;41.73;34.52;54.90;;
67398;Laerm;57728;50.448;18.824;2023-01-31T06:59:09;37.00;34.57;42.30;;
67398;Laerm;57728;50.448;18.824;2023-01-31T07:01:14;42.85;34.25;57.02;;
67398;Laerm;57728;50.448;18.824;2023-01-31T07:03:15;37.41;34.69;47.33;;
67398;Laerm;57728;50.448;18.824;2023-01-31T07:05:19;37.75;34.54;51.49;;
67398;Laerm;57728;50.448;18.824;2023-01-31T07:07:22;36.44;34.45;45.26;;
67398;Laerm;57728;50.448;18.824;2023-01-31T07:09:23;42.40;34.52;56.64;;
67398;Laerm;57728;50.448;18.824;2023-01-31T07:11:24;36.93;34.31;44.75;;
67398;Laerm;57728;50.448;18.824;2023-01-31T07:13:28;36.71;34.38;46.22;;
67398;Laerm;57728;50.448;18.824;2023-01-31T07:15:30;36.99;34.11;45.06;;
67398;Laerm;57728;50.448;18.824;2023-01-31T07:17:31;36.99;34.45;43.46;;
67398;Laerm;57728;50.448;18.824;2023-01-31T07:19:34;37.08;34.43;48.47;;
67398;Laerm;57728;50.448;18.824;2023-01-31T07:21:35;36.70;34.35;50.18;;
67398;Laerm;57728;50.448;18.824;2023-01-31T07:23:37;36.42;34.15;43.14;;
67398;Laerm;57728;50.448;18.824;2023-01-31T07:25:39;36.65;34.55;46.31;;
67398;Laerm;57728;50.448;18.824;2023-01-31T07:27:40;36.94;34.58;43.11;;
67398;Laerm;57728;50.448;18.824;2023-01-31T07:29:42;36.15;34.28;43.04;;
67398;Laerm;57728;50.448;18.824;2023-01-31T07:31:45;35.88;34.08;51.34;;
67398;Laerm;57728;50.448;18.824;2023-01-31T07:33:47;36.81;34.25;51.31;;
67398;Laerm;57728;50.448;18.824;2023-01-31T07:35:48;35.95;34.23;43.14;;
67398;Laerm;57728;50.448;18.824;2023-01-31T07:37:51;36.34;34.26;43.22;;
67398;Laerm;57728;50.448;18.824;2023-01-31T07:39:53;36.19;34.30;42.22;;
67398;Laerm;57728;50.448;18.824;2023-01-31T07:41:54;36.28;33.98;44.26;;
67398;Laerm;57728;50.448;18.824;2023-01-31T07:43:59;36.68;34.27;48.04;;
67398;Laerm;57728;50.448;18.824;2023-01-31T07:46:01;35.85;34.05;46.14;;
67398;Laerm;57728;50.448;18.824;2023-01-31T07:48:02;36.37;34.18;55.95;;
67398;Laerm;57728;50.448;18.824;2023-01-31T07:50:05;36.50;33.99;45.83;;
67398;Laerm;57728;50.448;18.824;2023-01-31T07:52:07;37.32;34.21;48.56;;
67398;Laerm;57728;50.448;18.824;2023-01-31T07:54:10;36.23;34.24;42.13;;
67398;Laerm;57728;50.448;18.824;2023-01-31T07:56:17;35.91;33.85;45.80;;
67398;Laerm;57728;50.448;18.824;2023-01-31T07:58:19;36.58;33.94;45.13;;
67398;Laerm;57728;50.448;18.824;2023-01-31T08:00:20;35.27;33.92;41.06;;
67398;Laerm;57728;50.448;18.824;2023-01-31T08:02:42;36.90;34.10;44.70;;
67398;Laerm;57728;50.448;18.824;2023-01-31T08:05:02;36.86;34.11;45.07;;
67398;Laerm;57728;50.448;18.824;2023-01-31T08:07:04;35.36;33.79;44.36;;
67398;Laerm;57728;50.448;18.824;2023-01-31T08:09:08;35.83;33.94;42.86;;
67398;Laerm;57728;50.448;18.824;2023-01-31T08:11:10;35.99;33.96;44.40;;
67398;Laerm;57728;50.448;18.824;2023-01-31T08:13:12;35.31;33.82;41.59;;
67398;Laerm;57728;50.448;18.824;2023-01-31T08:15:14;37.08;34.04;57.53;;
67398;Laerm;57728;50.448;18.824;2023-01-31T08:17:16;36.28;34.00;54.99;;
67398;Laerm;57728;50.448;18.824;2023-01-31T08:19:17;35.94;34.03;48.09;;
67398;Laerm;57728;50.448;18.824;2023-01-31T08:21:20;37.38;33.91;49.51;;
67398;Laerm;57728;50.448;18.824;2023-01-31T08:23:21;36.40;34.14;46.81;;
67398;Laerm;57728;50.448;18.824;2023-01-31T08:25:22;37.90;33.90;57.09;;
67398;Laerm;57728;50.448;18.824;2023-01-31T08:27:27;40.76;33.92;67.22;;
67398;Laerm;57728;50.448;18.824;2023-01-31T08:29:28;42.70;33.66;68.34;;
67398;Laerm;57728;50.448;18.824;2023-01-31T08:31:30;36.50;33.79;57.43;;
67398;Laerm;57728;50.448;18.824;2023-01-31T08:33:32;35.73;33.75;48.16;;
67398;Laerm;57728;50.448;18.824;2023-01-31T08:35:34;36.38;33.90;53.29;;
67398;Laerm;57728;50.448;18.824;2023-01-31T08:37:35;36.84;33.84;57.96;;
67398;Laerm;57728;50.448;18.824;2023-01-31T08:39:37;42.20;33.57;69.32;;
67398;Laerm;57728;50.448;18.824;2023-01-31T08:41:39;35.94;33.66;46.13;;
67398;Laerm;57728;50.448;18.824;2023-01-31T08:43:40;38.73;33.91;60.32;;
67398;Laerm;57728;50.448;18.824;2023-01-31T08:45:44;35.63;33.85;47.91;;
67398;Laerm;57728;50.448;18.824;2023-01-31T08:47:45;36.38;33.77;55.83;;
67398;Laerm;57728;50.448;18.824;2023-01-31T08:49:47;36.67;33.65;48.50;;
67398;Laerm;57728;50.448;18.824;2023-01-31T08:51:49;36.60;33.69;52.26;;
67398;Laerm;57728;50.448;18.824;2023-01-31T08:53:51;36.26;33.79;56.21;;
67398;Laerm;57728;50.448;18.824;2023-01-31T08:55:58;35.75;33.75;45.25;;
67398;Laerm;57728;50.448;18.824;2023-01-31T08:58:01;40.90;33.85;55.89;;
67398;Laerm;57728;50.448;18.824;2023-01-31T09:00:03;35.03;33.70;42.25;;
67398;Laerm;57728;50.448;18.824;2023-01-31T09:02:05;36.30;33.64;45.37;;
67398;Laerm;57728;50.448;18.824;2023-01-31T09:04:08;37.37;33.83;51.01;;
67398;Laerm;57728;50.448;18.824;2023-01-31T09:06:15;35.39;33.87;44.58;;
67398;Laerm;57728;50.448;18.824;2023-01-31T09:08:17;37.83;33.78;59.41;;
67398;Laerm;57728;50.448;18.824;2023-01-31T09:10:21;36.86;33.67;51.42;;
67398;Laerm;57728;50.448;18.824;2023-01-31T09:12:22;35.79;33.61;54.90;;
67398;Laerm;57728;50.448;18.824;2023-01-31T09:14:24;36.03;33.31;52.72;;
67398;Laerm;57728;50.448;18.824;2023-01-31T09:16:26;37.40;33.58;60.69;;
67398;Laerm;57728;50.448;18.824;2023-01-31T09:18:28;35.72;33.55;53.02;;
67398;Laerm;57728;50.448;18.824;2023-01-31T09:20:30;35.68;33.70;53.79;;
67398;Laerm;57728;50.448;18.824;2023-01-31T09:22:33;38.52;33.66;58.51;;
67398;Laerm;57728;50.448;18.824;2023-01-31T09:24:35;36.12;33.62;50.00;;
67398;Laerm;57728;50.448;18.824;2023-01-31T09:26:36;36.71;33.51;55.25;;
67398;Laerm;57728;50.448;18.824;2023-01-31T09:28:40;40.61;33.53;62.57;;
67398;Laerm;57728;50.448;18.824;2023-01-31T09:30:45;36.20;33.27;56.63;;
67398;Laerm;57728;50.448;18.824;2023-01-31T09:32:46;35.91;33.54;50.81;;
67398;Laerm;57728;50.448;18.824;2023-01-31T09:34:50;35.46;33.43;46.35;;
67398;Laerm;57728;50.448;18.824;2023-01-31T09:36:52;35.94;33.42;50.50;;
67398;Laerm;57728;50.448;18.824;2023-01-31T09:38:56;35.32;33.47;49.12;;
67398;Laerm;57728;50.448;18.824;2023-01-31T09:41:08;36.74;33.59;58.38;;
67398;Laerm;57728;50.448;18.824;2023-01-31T09:43:21;35.04;33.30;50.16;;
67398;Laerm;57728;50.448;18.824;2023-01-31T09:45:34;38.35;33.39;56.92;;
67398;Laerm;57728;50.448;18.824;2023-01-31T09:47:49;42.53;33.65;64.05;;
67398;Laerm;57728;50.448;18.824;2023-01-31T09:50:01;35.77;33.62;48.21;;
67398;Laerm;57728;50.448;18.824;2023-01-31T09:52:03;36.88;33.74;55.73;;
67398;Laerm;57728;50.448;18.824;2023-01-31T09:54:19;37.34;33.60;56.71;;
67398;Laerm;57728;50.448;18.824;2023-01-31T09:56:50;35.68;33.49;50.36;;
67398;Laerm;57728;50.448;18.824;2023-01-31T10:02:55;35.52;33.53;51.91;;
67398;Laerm;57728;50.448;18.824;2023-01-31T10:08:08;37.38;33.51;65.68;;
67398;Laerm;57728;50.448;18.824;2023-01-31T10:12:59;35.56;33.59;50.42;;
67398;Laerm;57728;50.448;18.824;2023-01-31T10:17:59;35.54;33.68;51.83;;
67398;Laerm;57728;50.448;18.824;2023-01-31T10:20:31;36.80;33.54;63.70;;
67398;Laerm;57728;50.448;18.824;2023-01-31T10:25:31;35.81;33.86;57.81;;
67398;Laerm;57728;50.448;18.824;2023-01-31T10:27:50;36.94;33.65;65.32;;
67398;Laerm;57728;50.448;18.824;2023-01-31T10:29:55;35.65;33.66;56.10;;
67398;Laerm;57728;50.448;18.824;2023-01-31T10:32:09;36.23;33.57;49.65;;
67398;Laerm;57728;50.448;18.824;2023-01-31T10:45:09;36.30;33.78;54.44;;
67398;Laerm;57728;50.448;18.824;2023-01-31T10:47:16;37.50;33.98;55.73;;
67398;Laerm;57728;50.448;18.824;2023-01-31T10:49:23;38.40;33.90;55.10;;
67398;Laerm;57728;50.448;18.824;2023-01-31T10:52:04;38.86;33.89;69.91;;
67398;Laerm;57728;50.448;18.824;2023-01-31T10:56:42;36.40;33.83;56.77;;
67398;Laerm;57728;50.448;18.824;2023-01-31T10:58:45;36.44;33.81;58.76;;
67398;Laerm;57728;50.448;18.824;2023-01-31T11:00:48;36.73;33.67;59.15;;
67398;Laerm;57728;50.448;18.824;2023-01-31T11:02:51;36.86;33.72;57.67;;
67398;Laerm;57728;50.448;18.824;2023-01-31T11:04:57;36.55;33.57;57.09;;
67398;Laerm;57728;50.448;18.824;2023-01-31T11:07:01;38.40;33.68;65.29;;
67398;Laerm;57728;50.448;18.824;2023-01-31T11:09:04;38.02;33.92;54.78;;
67398;Laerm;57728;50.448;18.824;2023-01-31T11:11:10;38.30;34.06;62.48;;
67398;Laerm;57728;50.448;18.824;2023-01-31T11:13:19;38.16;33.89;61.47;;
67398;Laerm;57728;50.448;18.824;2023-01-31T11:15:27;38.69;33.72;65.37;;
67398;Laerm;57728;50.448;18.824;2023-01-31T11:17:35;36.61;33.92;53.02;;
67398;Laerm;57728;50.448;18.824;2023-01-31T11:21:52;37.82;33.83;64.33;;
67398;Laerm;57728;50.448;18.824;2023-01-31T11:24:16;35.83;33.58;49.45;;
67398;Laerm;57728;50.448;18.824;2023-01-31T11:26:33;36.37;33.62;52.16;;
67398;Laerm;57728;50.448;18.824;2023-01-31T11:28:39;36.51;33.66;48.71;;
67398;Laerm;57728;50.448;18.824;2023-01-31T11:30:47;36.16;33.66;50.69;;
67398;Laerm;57728;50.448;18.824;2023-01-31T11:32:50;36.85;33.67;52.12;;
67398;Laerm;57728;50.448;18.824;2023-01-31T11:34:59;36.30;33.64;52.85;;
67398;Laerm;57728;50.448;18.824;2023-01-31T11:37:18;35.73;33.71;52.76;;
67398;Laerm;57728;50.448;18.824;2023-01-31T11:39:30;35.33;33.48;43.70;;
67398;Laerm;57728;50.448;18.824;2023-01-31T11:41:36;36.56;33.73;51.02;;
67398;Laerm;57728;50.448;18.824;2023-01-31T11:43:37;36.04;33.74;49.20;;
67398;Laerm;57728;50.448;18.824;2023-01-31T11:45:45;35.69;33.69;53.57;;
67398;Laerm;57728;50.448;18.824;2023-01-31T11:48:19;35.38;33.63;50.28;;
67398;Laerm;57728;50.448;18.824;2023-01-31T11:50:33;35.84;33.47;45.16;;
67398;Laerm;57728;50.448;18.824;2023-01-31T11:52:37;35.33;33.45;49.77;;
67398;Laerm;57728;50.448;18.824;2023-01-31T11:54:47;36.01;33.68;50.93;;
67398;Laerm;57728;50.448;18.824;2023-01-31T11:56:51;35.81;33.65;51.44;;
67398;Laerm;57728;50.448;18.824;2023-01-31T11:59:02;35.46;33.59;47.89;;
67398;Laerm;57728;50.448;18.824;2023-01-31T12:01:16;35.22;33.50;49.56;;
67398;Laerm;57728;50.448;18.824;2023-01-31T12:03:18;35.37;33.58;48.41;;
67398;Laerm;57728;50.448;18.824;2023-01-31T12:05:59;36.84;33.58;53.15;;
67398;Laerm;57728;50.448;18.824;2023-01-31T12:07:58;36.75;33.68;59.28;;
67398;Laerm;57728;50.448;18.824;2023-01-31T12:09:59;38.04;33.59;61.74;;
67398;Laerm;57728;50.448;18.824;2023-01-31T12:12:01;36.50;33.74;50.39;;
67398;Laerm;57728;50.448;18.824;2023-01-31T12:14:17;36.30;33.44;55.89;;
67398;Laerm;57728;50.448;18.824;2023-01-31T12:16:29;38.09;33.47;59.23;;
67398;Laerm;57728;50.448;18.824;2023-01-31T12:19:07;39.47;33.48;61.86;;
67398;Laerm;57728;50.448;18.824;2023-01-31T12:26:52;36.08;33.37;53.15;;
67398;Laerm;57728;50.448;18.824;2023-01-31T12:37:23;37.17;33.53;55.79;;
67398;Laerm;57728;50.448;18.824;2023-01-31T12:44:49;36.02;33.40;50.15;;
67398;Laerm;57728;50.448;18.824;2023-01-31T12:49:57;37.00;33.59;52.52;;
67398;Laerm;57728;50.448;18.824;2023-01-31T12:57:37;35.35;33.52;51.81;;
67398;Laerm;57728;50.448;18.824;2023-01-31T13:06:52;35.65;33.40;54.34;;
67398;Laerm;57728;50.448;18.824;2023-01-31T13:09:25;35.48;33.50;43.99;;